Nokomis, FL (34274)

3:10 PM EDT on March 27, 2015 (GMT -0400)
East Nokomis, Shakett Creek | | Change Station
CLOSE
Current Station
Personal Weather Station
Location: Nokomis, FL
Elevation: 0 ft
Nearby Weather Stations
Active Advisory: Beach Hazard Statement

Elev 0 ft 27.13 °N, 82.43 °W | Updated 4 minutes ago

Rain
Rain
73.0 °F
Feels Like 71 °F
N
2.0
Wind Variable Wind from SW
Gusts 7.0 mph

Today
High -- | Low -- °F
--% Chance of Precip.
Yesterday
High -- | Low -- °F
Precip. -- in
7:26 AM 7:44 PM
First Quarter, 55% visible
Pressure 29.89 in
Visibility 2.0 miles
Clouds Scattered Clouds 1200 ft
Mostly Cloudy 3000 ft
Overcast 3700 ft
Heat Index 71 °F
Dew Point 70 °F
Humidity 89%
Rainfall 0.39 in
Snow Depth Not available.
UV 4 out of 12
Pollen 5.00 out of 12
Air Quality Not available.
Flu Activity Not available.
METAR KVNC 271855Z AUTO 23018G22KT 2SM RA SCT012 BKN030 OVC037 23/23 A2989 RMK AO2 LTG DSNT ALQDS

More Conditions Fewer Conditions

Pressure 29.89 in
Visibility 2.0 miles
Clouds Scattered Clouds 1200 ft
Mostly Cloudy 3000 ft
Overcast 3700 ft
Heat Index 71 °F
Dew Point 70 °F
Humidity 89%
Rainfall 0.39 in
Snow Depth Not available.
UV 4 out of 12
Pollen 5.00 out of 12
Air Quality Not available.
Flu Activity Not available.
METAR KVNC 271855Z AUTO 23018G22KT 2SM RA SCT012 BKN030 OVC037 23/23 A2989 RMK AO2 LTG DSNT ALQDS

More Conditions Fewer Conditions

10-Day Weather Forecast

Almanac

Astronomy

Mar. 27, 2015 Rise Set
Actual Time
Civil Twilight
Nautical Twilight
Astronomical Twilight
Moon
Length of Visible Light
Length of Day
Tomorrow will be .
, % of the Moon is Illuminated

Today's Extremes

State Highs State Lows

Community

WunderPhotos

Upload Photos

1,808,791 photos uploaded!

WunderBlogs® & News

Nearby

Air Quality

  Air Quality AQ Index Pollutant
Not available.

Snow Depth

Station Depth Elevation

Earthquake Activity

City Distance Mag. Time & Date
Minimum magnitude displayed is 2.5.

Coastal Water Temperatures

Place Temperature

Stations

Nearby Weather Stations

Station Location Temp. Windchill Dew Point Humidity Wind Precip. Elev Updated Type
                   
Beach Hazard Statement
Statement as of 5:14 AM EDT on March 27, 2015

... Beach hazards statement in effect from noon EDT today through
this evening...

The National Weather Service in Tampa Bay Ruskin has issued a
beach hazards statement for a moderate risk of rip currents which
is in effect from noon EDT today through this evening.

* Hazards... moderate risk of rip currents.

* Timing... from noon through this evening.

* Location... area beaches from Pinellas to Lee counties.

Precautionary/preparedness actions...

A moderate risk of rip currents means wind and or wave conditions
support stronger or more frequent rip currents. Always have a
flotation device with you in the water.



Http://www.Weather.Gov/Tampa